Time;durP1;ratioP1;P1;durP2;ratioP2;P2;SDS_P1;SDS_P2;PMS_P1;PMS_P2;Temp;Humidity;BMP_temperature;BMP_pressure;BME280_temperature;BME280_humidity;BME280_pressure;Samples;Min_cycle;Max_cycle;Signal;HPM_P1;HPM_P2
2023/03/04 00:01:02;;;;;;;57.17;30.17;;;1.30;99.90;;;;;;5049764;28;20975;-73
2023/03/04 00:03:28;;;;;;;57.93;29.10;;;1.20;99.90;;;;;;5049954;28;20609;-73
2023/03/04 00:05:53;;;;;;;58.00;28.50;;;1.20;99.90;;;;;;5050133;28;20564;-73
2023/03/04 00:08:19;;;;;;;59.67;27.43;;;1.10;99.90;;;;;;5048787;28;20215;-73
2023/03/04 00:10:45;;;;;;;61.13;27.50;;;1.10;99.90;;;;;;5050055;28;20183;-74
2023/03/04 00:13:10;;;;;;;53.47;28.23;;;1.00;99.90;;;;;;5050089;28;20568;-73
2023/03/04 00:15:36;;;;;;;51.23;27.30;;;1.00;99.90;;;;;;5049978;28;20473;-73
2023/03/04 00:18:02;;;;;;;56.60;29.20;;;0.90;99.90;;;;;;5048693;28;20200;-73
2023/03/04 00:20:27;;;;;;;73.00;33.43;;;0.90;99.90;;;;;;5048585;28;20219;-73
2023/03/04 00:22:53;;;;;;;65.93;32.10;;;0.90;99.90;;;;;;5048500;28;20265;-73
2023/03/04 00:25:18;;;;;;;60.57;30.93;;;1.00;99.90;;;;;;5049721;28;20209;-73
2023/03/04 00:27:44;;;;;;;63.10;31.30;;;1.00;99.90;;;;;;5049515;28;20593;-73
2023/03/04 00:30:10;;;;;;;66.63;31.83;;;1.10;99.90;;;;;;5049693;28;20278;-73
2023/03/04 00:32:36;;;;;;;58.50;30.03;;;1.10;99.90;;;;;;5048057;28;20184;-73
2023/03/04 00:35:01;;;;;;;64.63;32.70;;;1.10;99.90;;;;;;5049133;28;21066;-73
2023/03/04 00:37:27;;;;;;;66.80;31.70;;;1.10;99.90;;;;;;5047882;28;20211;-73
2023/03/04 00:39:52;;;;;;;62.30;31.60;;;1.10;99.90;;;;;;5048014;28;20225;-73
2023/03/04 00:42:18;;;;;;;57.13;27.90;;;1.10;99.90;;;;;;5049550;28;20188;-73
2023/03/04 00:44:43;;;;;;;61.67;30.40;;;1.10;99.90;;;;;;5031440;28;20180;-73
2023/03/04 00:47:09;;;;;;;52.27;29.70;;;1.00;99.90;;;;;;5049544;28;20552;-73
2023/03/04 00:49:36;;;;;;;63.53;29.90;;;1.00;99.90;;;;;;5049500;28;20176;-73
2023/03/04 00:52:02;;;;;;;49.70;27.55;;;1.00;99.90;;;;;;5047591;28;20186;-73
2023/03/04 00:54:27;;;;;;;56.50;27.33;;;0.90;99.90;;;;;;5048829;28;20196;-73
2023/03/04 00:56:53;;;;;;;60.60;31.70;;;0.80;99.90;;;;;;5048848;28;20212;-73
2023/03/04 00:59:19;;;;;;;57.53;27.90;;;0.90;99.90;;;;;;5048751;28;20184;-73
2023/03/04 01:01:44;;;;;;;52.43;27.97;;;0.80;99.90;;;;;;5047418;28;20194;-73
2023/03/04 01:04:10;;;;;;;58.77;28.47;;;0.70;99.90;;;;;;5047429;28;20188;-73
2023/03/04 01:06:35;;;;;;;52.73;28.30;;;0.70;99.90;;;;;;5047273;28;20191;-73
2023/03/04 01:09:01;;;;;;;62.57;31.90;;;0.70;99.90;;;;;;5048479;28;20207;-73
2023/03/04 01:11:27;;;;;;;53.63;27.80;;;0.70;99.90;;;;;;5046802;28;20184;-72
2023/03/04 01:13:52;;;;;;;58.73;27.87;;;0.70;99.90;;;;;;5046805;28;20656;-71
2023/03/04 01:16:18;;;;;;;53.97;27.90;;;0.70;99.90;;;;;;5047222;28;20708;-72
2023/03/04 01:18:46;;;;;;;62.03;28.93;;;0.70;99.90;;;;;;5030632;28;20205;-71
2023/03/04 01:21:11;;;;;;;55.58;27.08;;;0.60;99.90;;;;;;5048587;28;20667;-71
2023/03/04 01:23:37;;;;;;;58.13;26.90;;;0.60;99.90;;;;;;5048486;28;20195;-72
2023/03/04 01:26:05;;;;;;;57.23;30.13;;;0.60;99.90;;;;;;5047047;28;20191;-71
2023/03/04 01:28:34;;;;;;;53.00;27.38;;;0.60;99.90;;;;;;5047170;28;20207;-72
2023/03/04 01:31:01;;;;;;;57.25;27.95;;;0.60;99.90;;;;;;5046946;28;20215;-71
2023/03/04 01:33:26;;;;;;;54.45;28.35;;;0.50;99.90;;;;;;5047281;28;20258;-71
2023/03/04 01:35:52;;;;;;;63.47;29.80;;;0.50;99.90;;;;;;5046840;28;20767;-71
2023/03/04 01:38:17;;;;;;;60.40;28.33;;;0.50;99.90;;;;;;5048263;28;20291;-71
2023/03/04 01:40:43;;;;;;;80.47;28.03;;;0.50;99.90;;;;;;5030363;28;20191;-71
2023/03/04 01:43:22;;;;;;;68.30;28.57;;;0.40;99.90;;;;;;5048487;28;20233;-71
2023/03/04 01:45:48;;;;;;;56.40;28.95;;;0.50;99.90;;;;;;5048451;28;20263;-72
2023/03/04 01:48:17;;;;;;;69.25;30.05;;;0.40;99.90;;;;;;5048582;28;20214;-71
2023/03/04 01:50:43;;;;;;;59.97;30.27;;;0.40;99.90;;;;;;5047064;28;20190;-72
2023/03/04 01:53:20;;;;;;;53.80;29.10;;;0.30;99.90;;;;;;5048488;28;20184;-72
2023/03/04 01:55:46;;;;;;;58.83;29.33;;;0.20;99.90;;;;;;5048758;28;20875;-73
2023/03/04 01:58:12;;;;;;;63.17;30.48;;;0.20;99.90;;;;;;5048453;28;20664;-73
2023/03/04 02:00:37;;;;;;;64.60;30.80;;;0.20;99.90;;;;;;5048680;28;20207;-73
2023/03/04 02:03:11;;;;;;;67.00;32.10;;;0.20;99.90;;;;;;5030372;28;20183;-74
2023/03/04 02:05:39;;;;;;;60.08;29.30;;;0.20;99.90;;;;;;5048407;28;20424;-73
2023/03/04 02:08:06;;;;;;;66.43;31.85;;;0.10;99.90;;;;;;5048233;28;20227;-73
2023/03/04 02:10:32;;;;;;;60.00;30.38;;;0.10;99.90;;;;;;5047926;28;20188;-73
2023/03/04 02:13:00;;;;;;;60.25;28.00;;;0.10;99.90;;;;;;5048168;28;20218;-71
2023/03/04 02:15:26;;;;;;;61.13;30.27;;;0.10;99.90;;;;;;5046537;28;20302;-72
2023/03/04 02:17:52;;;;;;;64.00;31.70;;;0.10;99.90;;;;;;5048071;28;20207;-71
2023/03/04 02:20:24;;;;;;;70.10;32.33;;;0.10;99.90;;;;;;5048271;28;20184;-72
2023/03/04 02:23:03;;;;;;;59.28;28.50;;;0.10;99.90;;;;;;5048519;28;20230;-72
2023/03/04 02:25:36;;;;;;;63.75;31.80;;;0.20;99.90;;;;;;5052146;28;20226;-71
2023/03/04 02:28:01;;;;;;;63.67;31.02;;;0.20;99.90;;;;;;5051800;28;20744;-72
2023/03/04 02:30:27;;;;;;;59.10;28.17;;;0.20;99.90;;;;;;5051705;28;20199;-72
2023/03/04 02:32:53;;;;;;;65.20;31.13;;;0.10;99.90;;;;;;5051617;28;20242;-72
2023/03/04 02:35:20;;;;;;;59.60;30.17;;;0.00;99.90;;;;;;5051389;28;20285;-72
2023/03/04 02:37:46;;;;;;;57.50;29.85;;;0.00;99.90;;;;;;5051550;28;20207;-72
2023/03/04 02:40:28;;;;;;;62.28;30.05;;;0.10;99.90;;;;;;5051414;28;20271;-72
2023/03/04 02:42:54;;;;;;;62.90;30.13;;;0.00;99.90;;;;;;5051480;28;20222;-72
2023/03/04 02:45:50;;;;;;;63.37;31.33;;;-0.10;99.90;;;;;;5051431;28;20191;-72
2023/03/04 02:48:21;;;;;;;67.28;30.85;;;-0.20;99.90;;;;;;5051403;28;20637;-72
2023/03/04 02:50:49;;;;;;;73.13;31.00;;;-0.20;99.90;;;;;;5050017;28;20588;-72
2023/03/04 02:53:16;;;;;;;62.53;29.83;;;-0.20;99.90;;;;;;5050151;28;20191;-73
2023/03/04 02:55:42;;;;;;;70.63;31.13;;;-0.20;99.90;;;;;;5051242;28;20274;-71
2023/03/04 02:58:09;;;;;;;66.27;31.77;;;-0.20;99.90;;;;;;5051036;28;20210;-72
2023/03/04 03:00:34;;;;;;;64.65;32.20;;;-0.20;99.90;;;;;;5049607;28;20414;-72
2023/03/04 03:03:00;;;;;;;69.93;32.47;;;-0.20;99.90;;;;;;5051152;28;20194;-72
2023/03/04 03:05:29;;;;;;;59.30;31.23;;;-0.10;99.90;;;;;;5051096;28;20179;-72
2023/03/04 03:07:55;;;;;;;67.68;32.35;;;-0.20;99.90;;;;;;5051064;28;20291;-72
2023/03/04 03:10:20;;;;;;;68.73;31.90;;;-0.20;99.90;;;;;;5050753;28;20271;-72
2023/03/04 03:12:46;;;;;;;64.90;31.57;;;-0.20;99.90;;;;;;5050565;28;20187;-72
2023/03/04 03:15:12;;;;;;;62.43;30.80;;;-0.20;99.90;;;;;;5032643;28;20219;-73
2023/03/04 03:17:38;;;;;;;63.47;32.30;;;-0.20;99.90;;;;;;5049340;28;20208;-72
2023/03/04 03:20:04;;;;;;;69.67;31.03;;;-0.20;99.90;;;;;;5049342;28;20410;-73
2023/03/04 03:22:30;;;;;;;60.78;31.33;;;-0.20;99.90;;;;;;5050480;28;20457;-73
2023/03/04 03:24:55;;;;;;;65.67;30.57;;;-0.20;99.90;;;;;;5049329;28;20187;-73
2023/03/04 03:27:21;;;;;;;67.13;32.63;;;-0.30;99.90;;;;;;5050915;28;20195;-73
2023/03/04 03:29:46;;;;;;;62.10;31.00;;;-0.30;99.90;;;;;;5049890;28;20180;-73
2023/03/04 03:32:12;;;;;;;69.90;33.00;;;-0.30;99.90;;;;;;5051093;28;20295;-73
2023/03/04 03:34:38;;;;;;;70.90;32.50;;;-0.30;99.90;;;;;;5050586;28;20919;-74
2023/03/04 03:37:04;;;;;;;60.90;28.25;;;-0.30;99.90;;;;;;5050411;28;20212;-73
2023/03/04 03:39:29;;;;;;;54.37;29.50;;;-0.30;99.90;;;;;;5050911;28;20180;-72
2023/03/04 03:41:55;;;;;;;59.40;31.23;;;-0.40;99.90;;;;;;5049644;28;20598;-72
2023/03/04 03:44:20;;;;;;;60.70;30.87;;;-0.40;99.90;;;;;;5050725;28;20218;-72
2023/03/04 03:46:46;;;;;;;58.97;30.37;;;-0.40;99.90;;;;;;5050222;28;20715;-72
2023/03/04 03:49:12;;;;;;;70.47;30.60;;;-0.50;99.90;;;;;;5031792;28;20238;-73
2023/03/04 03:51:38;;;;;;;66.23;31.63;;;-0.50;99.90;;;;;;5049977;28;20184;-73
2023/03/04 03:54:03;;;;;;;68.53;32.70;;;-0.40;99.90;;;;;;5048396;28;20191;-73
2023/03/04 03:56:29;;;;;;;72.83;34.27;;;-0.40;99.90;;;;;;5050021;28;20470;-73
2023/03/04 03:58:54;;;;;;;63.43;33.03;;;-0.40;99.90;;;;;;5048810;28;20204;-73
2023/03/04 04:01:20;;;;;;;63.50;30.97;;;-0.50;99.90;;;;;;5048363;28;20192;-73
2023/03/04 04:03:46;;;;;;;67.20;32.33;;;-0.50;99.90;;;;;;5048432;28;20617;-73
2023/03/04 04:06:11;;;;;;;62.17;31.70;;;-0.50;99.90;;;;;;5049862;28;20242;-73
2023/03/04 04:08:37;;;;;;;61.67;31.80;;;-0.50;99.90;;;;;;5048237;28;20235;-73
2023/03/04 04:11:03;;;;;;;62.20;32.10;;;-0.50;99.90;;;;;;5048410;28;20249;-73
2023/03/04 04:13:29;;;;;;;65.37;32.43;;;-0.60;99.90;;;;;;5049883;28;20421;-73
2023/03/04 04:15:54;;;;;;;59.13;30.10;;;-0.60;99.90;;;;;;5048710;28;20466;-74
2023/03/04 04:18:20;;;;;;;62.17;30.30;;;-0.60;99.90;;;;;;5031923;28;20233;-73
2023/03/04 04:20:46;;;;;;;51.30;27.03;;;-0.60;99.90;;;;;;5048841;28;20679;-74
2023/03/04 04:23:11;;;;;;;57.40;27.57;;;-0.60;99.90;;;;;;5048159;28;20179;-73
2023/03/04 04:25:37;;;;;;;52.23;27.33;;;-0.50;99.90;;;;;;5049949;28;20514;-74
2023/03/04 04:28:03;;;;;;;52.67;25.63;;;-0.60;99.90;;;;;;5049974;28;20237;-74
2023/03/04 04:30:29;;;;;;;55.93;26.33;;;-0.60;99.90;;;;;;5049931;28;20914;-74
2023/03/04 04:32:54;;;;;;;51.30;25.40;;;-0.60;99.90;;;;;;5047961;28;20215;-74
2023/03/04 04:35:20;;;;;;;62.93;29.90;;;-0.60;99.90;;;;;;5049085;28;20298;-74
2023/03/04 04:37:46;;;;;;;60.60;29.90;;;-0.70;99.90;;;;;;5047602;28;20267;-73
2023/03/04 04:40:12;;;;;;;57.50;29.70;;;-0.70;99.90;;;;;;5049137;28;20183;-73
2023/03/04 04:42:37;;;;;;;60.08;29.13;;;-0.70;99.90;;;;;;5031107;28;20263;-74
2023/03/04 04:45:04;;;;;;;56.57;28.63;;;-0.70;99.90;;;;;;5048942;28;20191;-74
2023/03/04 04:47:29;;;;;;;56.35;28.20;;;-0.80;99.90;;;;;;5046527;28;20196;-74
2023/03/04 04:49:55;;;;;;;58.17;29.20;;;-0.80;99.90;;;;;;5048772;28;20716;-74
2023/03/04 04:52:20;;;;;;;64.87;29.47;;;-0.80;99.90;;;;;;5047492;28;20180;-74
2023/03/04 04:54:46;;;;;;;59.03;29.20;;;-0.80;99.90;;;;;;5047312;28;20190;-72
2023/03/04 04:57:12;;;;;;;57.67;28.50;;;-0.90;99.90;;;;;;5048726;28;20684;-73
2023/03/04 04:59:37;;;;;;;64.73;30.00;;;-0.90;99.90;;;;;;5047544;28;20557;-73
2023/03/04 05:02:03;;;;;;;57.67;29.07;;;-0.90;99.90;;;;;;5048792;28;20190;-73
2023/03/04 05:04:29;;;;;;;60.53;29.27;;;-0.90;99.90;;;;;;5047272;28;20172;-73
2023/03/04 05:06:54;;;;;;;61.20;28.83;;;-0.90;99.90;;;;;;5047369;28;20685;-73
2023/03/04 05:09:21;;;;;;;65.30;31.03;;;-1.00;99.90;;;;;;5048623;28;20207;-73
2023/03/04 05:11:47;;;;;;;62.72;29.25;;;-1.00;99.90;;;;;;5048536;28;20180;-73
2023/03/04 05:14:13;;;;;;;77.10;29.40;;;-1.10;99.90;;;;;;5048964;28;20179;-74
2023/03/04 05:16:38;;;;;;;66.90;29.13;;;-1.10;99.90;;;;;;5047231;28;20531;-73
2023/03/04 05:19:04;;;;;;;67.13;30.50;;;-1.10;99.90;;;;;;5048576;28;21086;-73
2023/03/04 05:21:29;;;;;;;69.73;30.73;;;-1.10;99.90;;;;;;5046787;28;20188;-73
2023/03/04 05:23:55;;;;;;;65.97;30.80;;;-1.10;99.90;;;;;;5048535;28;20175;-73
2023/03/04 05:26:21;;;;;;;64.40;32.53;;;-1.10;99.90;;;;;;5048228;28;20215;-73
2023/03/04 05:28:46;;;;;;;69.73;31.30;;;-1.10;99.90;;;;;;5047152;28;20207;-74
2023/03/04 05:31:12;;;;;;;67.20;28.60;;;-1.10;99.90;;;;;;5048412;28;20279;-74
2023/03/04 05:33:38;;;;;;;67.47;31.17;;;-1.20;99.90;;;;;;5030516;28;20184;-74
2023/03/04 05:36:05;;;;;;;64.30;31.20;;;-1.30;99.90;;;;;;5048461;28;20215;-73
2023/03/04 05:38:31;;;;;;;65.93;31.48;;;-1.30;99.90;;;;;;5046893;28;20452;-73
2023/03/04 05:40:58;;;;;;;64.20;30.17;;;-1.30;99.90;;;;;;5048343;28;20668;-73
2023/03/04 05:43:26;;;;;;;60.70;28.95;;;-1.30;99.90;;;;;;5048513;28;20271;-73
2023/03/04 05:45:51;;;;;;;57.33;29.20;;;-1.40;99.90;;;;;;5048273;28;20188;-73
2023/03/04 05:48:18;;;;;;;57.17;29.37;;;-1.40;99.90;;;;;;5048240;28;20596;-74
2023/03/04 05:50:43;;;;;;;63.22;28.77;;;-1.40;99.90;;;;;;5046638;28;20198;-74
2023/03/04 05:53:09;;;;;;;56.77;28.90;;;-1.40;99.90;;;;;;5030580;28;20188;-74
2023/03/04 05:55:34;;;;;;;61.50;28.30;;;-1.40;99.90;;;;;;5048014;28;20214;-74
2023/03/04 05:58:00;;;;;;;61.33;30.70;;;-1.40;99.90;;;;;;5047303;28;20223;-73
2023/03/04 06:00:26;;;;;;;67.00;30.97;;;-1.50;99.90;;;;;;5050643;28;20184;-73
2023/03/04 06:02:51;;;;;;;64.30;32.30;;;-1.50;99.90;;;;;;5052147;28;20582;-73
2023/03/04 06:05:17;;;;;;;64.07;30.83;;;-1.50;99.90;;;;;;5051914;28;20241;-73
2023/03/04 06:07:43;;;;;;;67.70;31.57;;;-1.50;99.90;;;;;;5050460;28;20215;-74
2023/03/04 06:10:12;;;;;;;63.83;28.88;;;-1.40;99.90;;;;;;5050381;28;20253;-73
2023/03/04 06:12:38;;;;;;;63.75;29.58;;;-1.40;99.90;;;;;;5051872;28;20619;-72
2023/03/04 06:15:05;;;;;;;60.10;29.23;;;-1.40;99.90;;;;;;5051849;28;20222;-72
2023/03/04 06:17:30;;;;;;;66.32;31.27;;;-1.40;99.90;;;;;;5051684;28;20195;-73
2023/03/04 06:19:56;;;;;;;65.10;30.20;;;-1.30;99.90;;;;;;5051849;28;20190;-73
2023/03/04 06:22:22;;;;;;;58.77;29.70;;;-1.30;99.90;;;;;;5051538;28;20875;-72
2023/03/04 06:24:47;;;;;;;69.10;31.40;;;-1.30;99.90;;;;;;5050250;28;20188;-73
2023/03/04 06:27:15;;;;;;;66.10;31.10;;;-1.30;99.90;;;;;;5051852;28;20187;-73
2023/03/04 06:29:40;;;;;;;67.05;33.35;;;-1.30;99.90;;;;;;5051218;28;20176;-73
2023/03/04 06:32:06;;;;;;;80.87;37.10;;;-1.40;99.90;;;;;;5052323;28;20248;-72
2023/03/04 06:34:32;;;;;;;79.97;35.23;;;-1.40;99.90;;;;;;5051692;28;20256;-74
2023/03/04 06:36:58;;;;;;;70.90;32.83;;;-1.40;99.90;;;;;;5049412;28;20271;-73
2023/03/04 06:39:24;;;;;;;64.88;31.77;;;-1.30;99.90;;;;;;5051490;28;20562;-73
2023/03/04 06:41:49;;;;;;;62.67;31.27;;;-1.30;99.90;;;;;;5051392;28;20180;-73
2023/03/04 06:44:15;;;;;;;65.07;33.27;;;-1.20;99.90;;;;;;5050015;28;20234;-73
2023/03/04 06:46:41;;;;;;;67.73;32.93;;;-1.10;99.90;;;;;;5051199;28;20220;-73
2023/03/04 06:49:07;;;;;;;70.40;33.40;;;-1.00;99.90;;;;;;5049717;28;20972;-73
2023/03/04 06:51:32;;;;;;;63.77;33.77;;;-1.00;99.90;;;;;;5049760;28;20191;-73
2023/03/04 06:53:58;;;;;;;67.33;32.07;;;-0.90;99.90;;;;;;5051199;28;20972;-73
2023/03/04 06:56:25;;;;;;;65.40;32.53;;;-0.90;99.90;;;;;;5051719;28;20273;-73
2023/03/04 06:58:51;;;;;;;82.85;37.10;;;-0.90;99.90;;;;;;5051804;28;20671;-73
2023/03/04 07:01:23;;;;;;;82.93;39.70;;;-0.90;99.90;;;;;;5052741;28;20180;-73
2023/03/04 07:03:49;;;;;;;76.45;33.42;;;-0.90;99.90;;;;;;5051794;28;20230;-73
2023/03/04 07:06:18;;;;;;;75.60;34.58;;;-0.90;99.90;;;;;;5052691;28;20590;-74
2023/03/04 07:08:45;;;;;;;61.67;32.30;;;-0.90;99.90;;;;;;5052009;28;20214;-74
2023/03/04 07:11:11;;;;;;;77.53;34.90;;;-0.80;99.90;;;;;;5050816;28;20180;-73
2023/03/04 07:13:39;;;;;;;70.50;33.75;;;-0.70;99.90;;;;;;5050043;28;20183;-74
2023/03/04 07:16:07;;;;;;;66.93;30.77;;;-0.60;99.90;;;;;;5051330;28;20212;-74
2023/03/04 07:18:34;;;;;;;57.13;29.88;;;-0.50;99.90;;;;;;5051249;28;20216;-74
2023/03/04 07:20:59;;;;;;;79.50;34.70;;;-0.50;99.90;;;;;;5050975;28;20226;-74
2023/03/04 07:23:25;;;;;;;70.63;33.27;;;-0.40;99.90;;;;;;5049919;28;20188;-73
2023/03/04 07:25:51;;;;;;;64.80;32.33;;;-0.20;99.90;;;;;;5049459;28;20176;-74
2023/03/04 07:28:17;;;;;;;62.97;31.23;;;-0.10;99.90;;;;;;5049523;28;20676;-73
2023/03/04 07:30:43;;;;;;;71.55;32.47;;;0.00;99.90;;;;;;5050574;28;20184;-73
2023/03/04 07:33:08;;;;;;;67.20;32.57;;;0.10;99.90;;;;;;5050442;28;20245;-74
2023/03/04 07:35:37;;;;;;;62.20;32.30;;;0.20;99.90;;;;;;5050508;28;20518;-73
2023/03/04 07:38:03;;;;;;;70.22;34.55;;;0.20;99.90;;;;;;5050523;28;20532;-73
2023/03/04 07:40:28;;;;;;;72.77;32.00;;;0.40;99.90;;;;;;5050708;28;20188;-74
2023/03/04 07:43:00;;;;;;;78.77;36.70;;;0.50;99.90;;;;;;5050491;28;20191;-74
2023/03/04 07:45:26;;;;;;;87.10;43.38;;;0.60;99.90;;;;;;5051318;28;20199;-75
2023/03/04 07:47:53;;;;;;;89.07;44.20;;;0.70;99.90;;;;;;5050534;28;20310;-74
2023/03/04 07:50:18;;;;;;;73.03;37.17;;;0.80;99.90;;;;;;5051512;28;20418;-74
2023/03/04 07:52:47;;;;;;;77.00;40.50;;;0.90;99.90;;;;;;5052855;28;20184;-73
2023/03/04 07:55:14;;;;;;;102.93;49.33;;;1.00;99.90;;;;;;5052567;28;20425;-74
2023/03/04 07:57:45;;;;;;;81.65;40.50;;;1.00;99.90;;;;;;5052838;28;20690;-74
2023/03/04 08:00:13;;;;;;;76.80;38.42;;;1.00;99.90;;;;;;5051151;28;20189;-74
2023/03/04 08:02:39;;;;;;;78.32;42.92;;;1.10;99.90;;;;;;5049173;28;20232;-74
2023/03/04 08:05:05;;;;;;;79.37;40.27;;;1.10;99.90;;;;;;5049975;28;20218;-73
2023/03/04 08:07:30;;;;;;;74.63;39.90;;;1.10;99.90;;;;;;5048700;28;20434;-73
2023/03/04 08:09:56;;;;;;;72.73;37.47;;;1.10;99.90;;;;;;5049952;28;20414;-74
2023/03/04 08:12:23;;;;;;;69.80;34.77;;;1.00;99.90;;;;;;5050138;28;20177;-74
2023/03/04 08:14:50;;;;;;;71.50;38.15;;;1.10;99.90;;;;;;5050125;28;20176;-74
2023/03/04 08:17:15;;;;;;;69.45;34.63;;;1.10;99.90;;;;;;5049858;28;20596;-73
2023/03/04 08:19:41;;;;;;;63.90;32.60;;;1.00;99.90;;;;;;5048835;28;20188;-73
2023/03/04 08:22:06;;;;;;;61.30;29.53;;;1.00;99.90;;;;;;5049941;28;20667;-74
2023/03/04 08:24:32;;;;;;;55.50;27.63;;;1.00;99.90;;;;;;5048898;28;20191;-75
2023/03/04 08:26:58;;;;;;;56.10;28.20;;;0.90;99.90;;;;;;5050087;28;20184;-74
2023/03/04 08:29:25;;;;;;;63.80;29.50;;;1.00;99.90;;;;;;5050351;28;20434;-74
2023/03/04 08:31:53;;;;;;;55.80;26.60;;;1.00;99.90;;;;;;5050122;28;20664;-74
2023/03/04 08:34:21;;;;;;;55.80;27.35;;;1.00;99.90;;;;;;5050055;28;20180;-74
2023/03/04 08:36:46;;;;;;;56.30;29.05;;;1.00;99.90;;;;;;5049720;28;20306;-73
2023/03/04 08:39:14;;;;;;;60.90;28.70;;;0.90;99.90;;;;;;5048165;28;20299;-74
2023/03/04 08:41:40;;;;;;;53.25;27.33;;;1.00;99.90;;;;;;5049347;28;20194;-74
2023/03/04 08:44:07;;;;;;;62.43;30.00;;;0.90;99.90;;;;;;5048183;28;20264;-74
2023/03/04 08:46:33;;;;;;;54.95;28.15;;;0.90;99.90;;;;;;5049030;28;20180;-73
2023/03/04 08:48:58;;;;;;;59.13;31.70;;;0.90;99.90;;;;;;5048810;28;20203;-74
2023/03/04 08:51:24;;;;;;;57.60;31.60;;;0.80;99.90;;;;;;5047580;28;20430;-73
2023/03/04 08:53:50;;;;;;;61.03;29.13;;;0.90;99.90;;;;;;5048911;28;20217;-73
2023/03/04 08:56:16;;;;;;;56.08;26.13;;;0.90;99.90;;;;;;5048934;28;20235;-73
2023/03/04 08:58:42;;;;;;;58.35;28.60;;;0.80;99.90;;;;;;5048885;28;20197;-74
2023/03/04 09:01:10;;;;;;;68.10;32.33;;;0.80;99.90;;;;;;5048749;28;20726;-73
2023/03/04 09:03:36;;;;;;;71.50;31.92;;;0.90;99.90;;;;;;5048867;28;20206;-73
2023/03/04 09:06:03;;;;;;;65.60;30.70;;;0.90;99.90;;;;;;5047287;28;20195;-73
2023/03/04 09:08:29;;;;;;;58.70;29.90;;;0.90;99.90;;;;;;5046997;28;20527;-73
2023/03/04 09:10:54;;;;;;;63.13;31.03;;;1.00;99.90;;;;;;5048899;28;20188;-73
2023/03/04 09:13:22;;;;;;;68.27;32.40;;;1.00;99.90;;;;;;5048553;28;20418;-74
2023/03/04 09:15:49;;;;;;;62.63;32.30;;;1.00;99.90;;;;;;5048613;28;20204;-73
2023/03/04 09:18:16;;;;;;;63.22;30.58;;;1.00;99.90;;;;;;5048564;28;20624;-73
2023/03/04 09:20:42;;;;;;;60.25;29.98;;;0.90;99.90;;;;;;5048656;28;20201;-74
2023/03/04 09:23:09;;;;;;;63.30;30.00;;;1.00;99.90;;;;;;5048617;28;20962;-74
2023/03/04 09:25:36;;;;;;;58.00;26.45;;;0.90;99.90;;;;;;5048512;28;20172;-74
2023/03/04 09:28:02;;;;;;;49.85;24.90;;;0.90;99.90;;;;;;5048537;28;20211;-73
2023/03/04 09:30:27;;;;;;;47.63;23.57;;;0.90;99.90;;;;;;5048706;28;20180;-74
2023/03/04 09:32:53;;;;;;;59.20;26.60;;;1.00;99.90;;;;;;5047378;28;20425;-73
2023/03/04 09:35:19;;;;;;;46.20;24.60;;;1.00;99.90;;;;;;5052645;28;20909;-73
2023/03/04 09:37:45;;;;;;;45.30;24.20;;;1.00;99.90;;;;;;5051019;28;20215;-74
2023/03/04 09:40:19;;;;;;;48.65;23.13;;;1.10;99.90;;;;;;5052683;28;20724;-73
2023/03/04 09:42:54;;;;;;;54.38;25.75;;;1.00;99.90;;;;;;5052449;28;20271;-74
2023/03/04 09:45:23;;;;;;;52.33;25.83;;;1.10;99.90;;;;;;5052574;28;20175;-73
2023/03/04 09:47:51;;;;;;;58.85;26.67;;;1.10;99.90;;;;;;5050993;28;20203;-73
2023/03/04 09:50:19;;;;;;;54.03;26.10;;;1.10;99.90;;;;;;5034392;28;20546;-73
2023/03/04 09:52:48;;;;;;;62.70;29.20;;;1.20;99.90;;;;;;5052291;28;20211;-73
2023/03/04 09:55:33;;;;;;;54.17;26.52;;;1.10;99.90;;;;;;5052131;28;20226;-74
2023/03/04 09:58:05;;;;;;;63.33;28.92;;;1.10;99.90;;;;;;5052391;28;20200;-74
2023/03/04 10:01:07;;;;;;;64.57;27.38;;;1.10;99.90;;;;;;5050772;28;20185;-73
2023/03/04 10:03:44;;;;;;;55.05;27.30;;;1.00;99.90;;;;;;5051180;28;20179;-74
2023/03/04 10:06:15;;;;;;;59.45;28.88;;;1.10;99.90;;;;;;5052741;28;20686;-73
2023/03/04 10:08:42;;;;;;;56.70;27.50;;;1.10;99.90;;;;;;5051281;28;20802;-73
2023/03/04 10:11:25;;;;;;;57.03;28.52;;;1.10;99.90;;;;;;5052564;28;20253;-74
2023/03/04 10:14:09;;;;;;;51.83;25.27;;;1.10;99.90;;;;;;5052684;28;20602;-73
2023/03/04 10:16:43;;;;;;;60.30;26.35;;;1.20;99.90;;;;;;5052171;28;20215;-74
2023/03/04 10:19:30;;;;;;;46.03;22.75;;;1.10;99.90;;;;;;5050599;28;20212;-74
2023/03/04 10:21:56;;;;;;;41.72;19.25;;;1.20;99.90;;;;;;5051914;28;20176;-73
2023/03/04 10:24:27;;;;;;;37.03;17.33;;;1.30;99.90;;;;;;5051964;28;20624;-73
2023/03/04 10:27:00;;;;;;;30.67;16.48;;;1.30;99.90;;;;;;5052092;28;20180;-73
2023/03/04 10:29:30;;;;;;;28.40;15.90;;;1.30;99.90;;;;;;5050254;28;20203;-74
2023/03/04 10:31:56;;;;;;;32.72;18.45;;;1.40;99.90;;;;;;5051433;28;20243;-74
2023/03/04 10:34:22;;;;;;;49.77;22.10;;;1.40;99.90;;;;;;5050220;28;20196;-73
2023/03/04 10:37:02;;;;;;;37.43;18.43;;;1.40;99.90;;;;;;5049892;28;20227;-73
2023/03/04 10:39:48;;;;;;;37.70;19.10;;;1.30;99.90;;;;;;5051527;28;20172;-73
2023/03/04 10:42:14;;;;;;;35.03;18.75;;;1.30;99.90;;;;;;5051221;28;20183;-74
2023/03/04 10:44:57;;;;;;;41.87;20.30;;;1.30;99.90;;;;;;5051268;28;20242;-74
2023/03/04 10:47:28;;;;;;;38.42;20.20;;;1.30;99.90;;;;;;5051177;28;20278;-74
2023/03/04 10:49:56;;;;;;;39.15;19.42;;;1.30;99.90;;;;;;5051406;28;20656;-73
2023/03/04 10:52:29;;;;;;;39.67;20.70;;;1.40;99.90;;;;;;5049682;28;20718;-74
2023/03/04 10:55:26;;;;;;;38.70;17.92;;;1.40;99.90;;;;;;5051549;28;20181;-74
2023/03/04 10:57:55;;;;;;;29.98;15.80;;;1.50;99.90;;;;;;5046500;28;20240;-73
2023/03/04 11:00:24;;;;;;;29.75;15.40;;;1.50;99.90;;;;;;5049344;28;20661;-73
2023/03/04 11:02:50;;;;;;;38.72;16.40;;;1.50;99.90;;;;;;5049563;28;20184;-74
2023/03/04 11:05:21;;;;;;;30.60;16.37;;;1.60;99.90;;;;;;5051004;28;20205;-74
2023/03/04 11:07:54;;;;;;;33.38;16.52;;;1.70;99.90;;;;;;5050674;28;20206;-73
2023/03/04 11:10:21;;;;;;;31.98;16.55;;;1.70;99.90;;;;;;5050559;28;20188;-74
2023/03/04 11:13:00;;;;;;;28.50;14.30;;;1.70;99.90;;;;;;5050501;28;20179;-74
2023/03/04 11:15:30;;;;;;;33.47;16.17;;;1.80;99.90;;;;;;5050798;28;20315;-73
2023/03/04 11:18:15;;;;;;;29.85;16.50;;;1.80;99.90;;;;;;5050501;28;20212;-74
2023/03/04 11:20:45;;;;;;;39.65;16.65;;;1.70;99.90;;;;;;5050392;28;20259;-74
2023/03/04 11:23:29;;;;;;;32.53;16.50;;;1.70;99.90;;;;;;5050528;28;20189;-73
2023/03/04 11:26:02;;;;;;;34.95;17.65;;;1.80;99.90;;;;;;5048787;28;20818;-73
2023/03/04 11:28:39;;;;;;;33.92;17.90;;;1.90;99.90;;;;;;5032502;28;20250;-73
2023/03/04 11:31:19;;;;;;;35.35;17.30;;;1.90;99.90;;;;;;5050632;28;20226;-73
2023/03/04 11:34:00;;;;;;;34.13;17.60;;;1.90;99.90;;;;;;5050594;28;20484;-73
2023/03/04 11:36:50;;;;;;;36.63;17.60;;;2.00;99.90;;;;;;5048699;28;20230;-73
2023/03/04 11:39:23;;;;;;;34.88;18.33;;;1.90;99.90;;;;;;5050182;28;20211;-73
2023/03/04 11:42:01;;;;;;;37.22;17.92;;;2.00;99.90;;;;;;5050187;28;20743;-74
2023/03/04 11:44:27;;;;;;;38.03;17.63;;;2.00;99.90;;;;;;5048590;28;20201;-73
2023/03/04 11:47:02;;;;;;;39.92;19.42;;;2.00;99.90;;;;;;5048743;28;20191;-74
2023/03/04 11:49:36;;;;;;;36.28;16.83;;;1.90;99.90;;;;;;5049797;28;20259;-73
2023/03/04 11:52:32;;;;;;;31.38;16.33;;;1.80;99.90;;;;;;5049849;28;20180;-74
2023/03/04 11:55:28;;;;;;;36.92;17.42;;;1.90;99.90;;;;;;5049744;28;20212;-73
2023/03/04 11:58:03;;;;;;;32.47;17.75;;;1.90;99.90;;;;;;5049257;28;20204;-73
2023/03/04 12:00:56;;;;;;;31.60;16.90;;;2.00;99.90;;;;;;5048326;28;20192;-73
2023/03/04 12:03:43;;;;;;;34.10;18.48;;;2.00;99.90;;;;;;5049777;28;20736;-73
2023/03/04 12:06:29;;;;;;;30.25;16.42;;;2.10;99.90;;;;;;5049744;28;20230;-73
2023/03/04 12:09:32;;;;;;;32.05;17.55;;;2.30;99.90;;;;;;5051223;28;20200;-73
2023/03/04 12:12:12;;;;;;;40.60;17.50;;;2.50;99.90;;;;;;5050311;28;20181;-73
2023/03/04 12:14:50;;;;;;;33.40;18.73;;;2.60;99.90;;;;;;5049684;28;20180;-73
2023/03/04 12:17:49;;;;;;;34.88;18.15;;;2.70;99.90;;;;;;5049675;28;20219;-73
2023/03/04 12:20:51;;;;;;;34.35;18.15;;;2.80;99.90;;;;;;5049544;28;20185;-73
2023/03/04 12:23:30;;;;;;;38.22;18.00;;;2.90;99.90;;;;;;5049493;28;20168;-73
2023/03/04 12:26:31;;;;;;;34.13;19.20;;;2.80;99.90;;;;;;5049359;28;20289;-73
2023/03/04 12:29:06;;;;;;;36.90;19.42;;;2.80;99.90;;;;;;5036700;28;20213;-73
2023/03/04 12:31:44;;;;;;;41.83;21.63;;;2.80;99.90;;;;;;5047634;28;20663;-73
2023/03/04 12:34:35;;;;;;;34.40;18.77;;;3.00;99.90;;;;;;5049274;28;20197;-73
2023/03/04 12:37:20;;;;;;;33.17;19.40;;;3.20;99.90;;;;;;5047344;28;20312;-73
2023/03/04 12:39:55;;;;;;;37.88;18.65;;;3.20;99.90;;;;;;5049394;28;20212;-73
2023/03/04 12:42:40;;;;;;;37.63;19.42;;;3.30;99.90;;;;;;5049470;28;20207;-73